sensor_id;sensor_type;location;lat;lon;timestamp;pressure;altitude;pressure_sealevel;temperature;humidity
34506;BME280;20748;42.632;23.198;2022-09-17T00:00:36;91295.13;;;18.51;75.65
34506;BME280;20748;42.632;23.198;2022-09-17T00:03:09;91299.25;;;18.48;75.85
34506;BME280;20748;42.632;23.198;2022-09-17T00:05:42;91300.41;;;18.51;76.11
34506;BME280;20748;42.632;23.198;2022-09-17T00:08:15;91290.19;;;18.49;76.50
34506;BME280;20748;42.632;23.198;2022-09-17T00:10:47;91292.13;;;18.52;76.27
34506;BME280;20748;42.632;23.198;2022-09-17T00:13:20;91282.31;;;18.57;75.46
34506;BME280;20748;42.632;23.198;2022-09-17T00:15:53;91279.25;;;18.51;74.92
34506;BME280;20748;42.632;23.198;2022-09-17T00:18:25;91273.25;;;18.58;74.70
34506;BME280;20748;42.632;23.198;2022-09-17T00:20:58;91272.84;;;18.52;73.20
34506;BME280;20748;42.632;23.198;2022-09-17T00:23:30;91271.00;;;18.56;73.88
34506;BME280;20748;42.632;23.198;2022-09-17T00:26:04;91271.03;;;18.60;73.22
34506;BME280;20748;42.632;23.198;2022-09-17T00:28:38;91268.03;;;18.61;72.22
34506;BME280;20748;42.632;23.198;2022-09-17T00:31:10;91280.16;;;18.70;70.00
34506;BME280;20748;42.632;23.198;2022-09-17T00:33:42;91288.09;;;18.70;69.28
34506;BME280;20748;42.632;23.198;2022-09-17T00:36:15;91281.72;;;18.78;68.72
34506;BME280;20748;42.632;23.198;2022-09-17T00:38:48;91270.06;;;18.83;67.51
34506;BME280;20748;42.632;23.198;2022-09-17T00:41:22;91283.00;;;18.95;66.24
34506;BME280;20748;42.632;23.198;2022-09-17T00:43:56;91290.66;;;19.11;64.92
34506;BME280;20748;42.632;23.198;2022-09-17T00:46:33;91296.41;;;19.24;64.03
34506;BME280;20748;42.632;23.198;2022-09-17T00:49:11;91292.66;;;19.32;64.97
34506;BME280;20748;42.632;23.198;2022-09-17T00:51:50;91299.09;;;19.35;64.87
34506;BME280;20748;42.632;23.198;2022-09-17T00:54:29;91302.56;;;19.43;63.17
34506;BME280;20748;42.632;23.198;2022-09-17T00:57:02;91302.97;;;19.52;63.11
34506;BME280;20748;42.632;23.198;2022-09-17T00:59:35;91296.97;;;19.63;62.17
34506;BME280;20748;42.632;23.198;2022-09-17T01:02:08;91295.91;;;19.78;60.71
34506;BME280;20748;42.632;23.198;2022-09-17T01:04:41;91294.78;;;19.86;59.88
34506;BME280;20748;42.632;23.198;2022-09-17T01:07:25;91291.88;;;20.06;58.91
34506;BME280;20748;42.632;23.198;2022-09-17T01:10:05;91271.44;;;20.07;59.26
34506;BME280;20748;42.632;23.198;2022-09-17T01:12:55;91277.50;;;20.18;59.23
34506;BME280;20748;42.632;23.198;2022-09-17T01:15:36;91271.84;;;20.23;59.04
34506;BME280;20748;42.632;23.198;2022-09-17T01:18:28;91276.78;;;20.29;58.67
34506;BME280;20748;42.632;23.198;2022-09-17T01:21:29;91276.41;;;20.34;58.54
34506;BME280;20748;42.632;23.198;2022-09-17T01:24:40;91280.94;;;20.41;58.19
34506;BME280;20748;42.632;23.198;2022-09-17T01:30:31;91283.97;;;20.35;58.17
34506;BME280;20748;42.632;23.198;2022-09-17T01:33:07;91293.06;;;20.45;58.07
34506;BME280;20748;42.632;23.198;2022-09-17T01:35:48;91284.75;;;20.54;57.12
34506;BME280;20748;42.632;23.198;2022-09-17T01:38:25;91269.59;;;20.40;56.85
34506;BME280;20748;42.632;23.198;2022-09-17T01:41:03;91282.47;;;20.56;56.27
34506;BME280;20748;42.632;23.198;2022-09-17T01:43:44;91268.84;;;20.54;56.77
34506;BME280;20748;42.632;23.198;2022-09-17T01:46:20;91254.47;;;20.51;56.99
34506;BME280;20748;42.632;23.198;2022-09-17T01:48:58;91257.13;;;20.55;56.89
34506;BME280;20748;42.632;23.198;2022-09-17T01:51:35;91256.75;;;20.60;55.84
34506;BME280;20748;42.632;23.198;2022-09-17T01:54:15;91266.19;;;20.65;55.72
34506;BME280;20748;42.632;23.198;2022-09-17T01:56:51;91263.19;;;20.70;55.84
34506;BME280;20748;42.632;23.198;2022-09-17T01:59:30;91272.63;;;20.75;55.92
34506;BME280;20748;42.632;23.198;2022-09-17T02:02:09;91274.16;;;20.76;55.29
34506;BME280;20748;42.632;23.198;2022-09-17T02:04:45;91274.91;;;20.80;55.32
34506;BME280;20748;42.632;23.198;2022-09-17T02:07:21;91277.19;;;20.78;55.26
34506;BME280;20748;42.632;23.198;2022-09-17T02:09:57;91257.88;;;20.85;55.36
34506;BME280;20748;42.632;23.198;2022-09-17T02:12:32;91236.28;;;20.75;55.83
34506;BME280;20748;42.632;23.198;2022-09-17T02:15:09;91200.34;;;20.60;56.09
34506;BME280;20748;42.632;23.198;2022-09-17T02:17:47;91204.50;;;20.72;56.40
34506;BME280;20748;42.632;23.198;2022-09-17T02:20:25;91194.28;;;20.70;56.37
34506;BME280;20748;42.632;23.198;2022-09-17T02:23:05;91196.91;;;20.77;58.21
34506;BME280;20748;42.632;23.198;2022-09-17T02:25:42;91199.56;;;20.52;59.23
34506;BME280;20748;42.632;23.198;2022-09-17T02:28:19;91195.41;;;20.51;60.30
34506;BME280;20748;42.632;23.198;2022-09-17T02:30:56;91183.31;;;20.43;60.82
34506;BME280;20748;42.632;23.198;2022-09-17T02:33:31;91176.50;;;20.45;60.36
34506;BME280;20748;42.632;23.198;2022-09-17T02:36:05;91187.47;;;20.55;60.95
34506;BME280;20748;42.632;23.198;2022-09-17T02:38:40;91171.19;;;20.42;62.35
34506;BME280;20748;42.632;23.198;2022-09-17T02:41:17;91172.34;;;20.33;62.87
34506;BME280;20748;42.632;23.198;2022-09-17T02:43:57;91163.25;;;20.34;62.56
34506;BME280;20748;42.632;23.198;2022-09-17T02:46:52;91164.78;;;20.14;63.16
34506;BME280;20748;42.632;23.198;2022-09-17T02:49:42;91185.19;;;20.20;63.56
34506;BME280;20748;42.632;23.198;2022-09-17T02:52:29;91146.25;;;20.24;63.75
34506;BME280;20748;42.632;23.198;2022-09-17T02:55:11;91127.72;;;20.21;63.54
34506;BME280;20748;42.632;23.198;2022-09-17T02:57:52;91111.47;;;20.15;59.60
34506;BME280;20748;42.632;23.198;2022-09-17T03:00:25;91113.69;;;20.20;58.51
34506;BME280;20748;42.632;23.198;2022-09-17T03:03:01;91117.88;;;20.25;57.99
34506;BME280;20748;42.632;23.198;2022-09-17T03:05:37;91099.72;;;20.27;57.87
34506;BME280;20748;42.632;23.198;2022-09-17T03:08:12;91098.94;;;20.26;58.03
34506;BME280;20748;42.632;23.198;2022-09-17T03:10:45;91099.31;;;20.32;56.74
34506;BME280;20748;42.632;23.198;2022-09-17T03:13:19;91136.00;;;20.41;56.63
34506;BME280;20748;42.632;23.198;2022-09-17T03:15:51;91138.66;;;20.41;58.92
34506;BME280;20748;42.632;23.198;2022-09-17T03:18:24;91134.50;;;20.36;58.64
34506;BME280;20748;42.632;23.198;2022-09-17T03:20:57;91136.03;;;20.34;60.46
34506;BME280;20748;42.632;23.198;2022-09-17T03:23:29;91136.38;;;20.43;60.56
34506;BME280;20748;42.632;23.198;2022-09-17T03:26:01;91141.69;;;20.39;63.70
34506;BME280;20748;42.632;23.198;2022-09-17T03:28:34;91140.56;;;20.30;64.42
34506;BME280;20748;42.632;23.198;2022-09-17T03:31:06;91142.06;;;20.02;66.52
34506;BME280;20748;42.632;23.198;2022-09-17T03:33:39;91134.91;;;20.06;66.64
34506;BME280;20748;42.632;23.198;2022-09-17T03:36:12;91123.91;;;20.00;67.61
34506;BME280;20748;42.632;23.198;2022-09-17T03:38:44;91119.03;;;19.98;68.11
34506;BME280;20748;42.632;23.198;2022-09-17T03:41:16;91102.75;;;19.96;68.75
34506;BME280;20748;42.632;23.198;2022-09-17T03:43:49;91102.34;;;19.80;70.23
34506;BME280;20748;42.632;23.198;2022-09-17T03:46:21;91115.56;;;19.69;70.87
34506;BME280;20748;42.632;23.198;2022-09-17T03:48:53;91105.34;;;19.67;70.98
34506;BME280;20748;42.632;23.198;2022-09-17T03:51:26;91106.09;;;19.68;71.37
34506;BME280;20748;42.632;23.198;2022-09-17T03:53:59;91119.34;;;19.61;70.11
34506;BME280;20748;42.632;23.198;2022-09-17T03:56:32;91135.22;;;19.57;70.53
34506;BME280;20748;42.632;23.198;2022-09-17T03:59:04;91145.38;;;19.51;70.05
34506;BME280;20748;42.632;23.198;2022-09-17T04:01:36;91142.38;;;19.49;69.17
34506;BME280;20748;42.632;23.198;2022-09-17T04:04:09;91148.44;;;19.57;69.22
34506;BME280;20748;42.632;23.198;2022-09-17T04:06:42;91156.75;;;19.63;69.60
34506;BME280;20748;42.632;23.198;2022-09-17T04:09:14;91149.94;;;19.65;69.79
34506;BME280;20748;42.632;23.198;2022-09-17T04:11:47;91153.38;;;19.66;69.75
34506;BME280;20748;42.632;23.198;2022-09-17T04:14:19;91156.00;;;19.69;70.35
34506;BME280;20748;42.632;23.198;2022-09-17T04:16:52;91186.25;;;19.68;72.16
34506;BME280;20748;42.632;23.198;2022-09-17T04:19:24;91202.50;;;19.67;71.71
34506;BME280;20748;42.632;23.198;2022-09-17T04:21:57;91220.56;;;19.43;74.20
34506;BME280;20748;42.632;23.198;2022-09-17T04:24:29;91234.53;;;19.43;74.95
34506;BME280;20748;42.632;23.198;2022-09-17T04:27:02;91252.69;;;19.45;76.87
34506;BME280;20748;42.632;23.198;2022-09-17T04:29:34;91271.41;;;19.14;78.76
34506;BME280;20748;42.632;23.198;2022-09-17T04:32:06;91279.88;;;18.82;81.23
34506;BME280;20748;42.632;23.198;2022-09-17T04:34:39;91295.88;;;18.55;83.87
34506;BME280;20748;42.632;23.198;2022-09-17T04:37:12;91320.81;;;18.58;83.81
34506;BME280;20748;42.632;23.198;2022-09-17T04:39:44;91316.88;;;18.37;85.79
34506;BME280;20748;42.632;23.198;2022-09-17T04:42:17;91311.06;;;18.24;86.93
34506;BME280;20748;42.632;23.198;2022-09-17T04:44:49;91305.81;;;17.93;89.86
34506;BME280;20748;42.632;23.198;2022-09-17T04:47:22;91337.06;;;17.88;90.16
34506;BME280;20748;42.632;23.198;2022-09-17T04:49:54;91354.06;;;17.90;91.28
34506;BME280;20748;42.632;23.198;2022-09-17T04:52:27;91369.81;;;17.83;92.57
34506;BME280;20748;42.632;23.198;2022-09-17T04:55:03;91381.94;;;17.30;96.30
34506;BME280;20748;42.632;23.198;2022-09-17T04:57:35;91374.19;;;17.44;95.00
34506;BME280;20748;42.632;23.198;2022-09-17T05:00:11;91362.50;;;17.42;94.50
34506;BME280;20748;42.632;23.198;2022-09-17T05:02:45;91334.25;;;17.42;95.42
34506;BME280;20748;42.632;23.198;2022-09-17T05:05:18;91332.84;;;17.49;96.03
34506;BME280;20748;42.632;23.198;2022-09-17T05:07:51;91340.97;;;17.67;96.02
34506;BME280;20748;42.632;23.198;2022-09-17T05:10:24;91342.56;;;17.75;95.67
34506;BME280;20748;42.632;23.198;2022-09-17T05:12:56;91330.97;;;17.83;94.80
34506;BME280;20748;42.632;23.198;2022-09-17T05:15:29;91330.25;;;17.83;96.30
34506;BME280;20748;42.632;23.198;2022-09-17T05:18:02;91308.06;;;17.91;96.40
34506;BME280;20748;42.632;23.198;2022-09-17T05:20:34;91294.59;;;18.00;96.23
34506;BME280;20748;42.632;23.198;2022-09-17T05:23:07;91285.28;;;18.10;95.43
34506;BME280;20748;42.632;23.198;2022-09-17T05:25:40;91285.59;;;18.05;95.25
34506;BME280;20748;42.632;23.198;2022-09-17T05:28:12;91290.38;;;17.92;96.27
34506;BME280;20748;42.632;23.198;2022-09-17T05:30:44;91291.94;;;17.96;96.00
34506;BME280;20748;42.632;23.198;2022-09-17T05:33:16;91290.97;;;18.08;95.80
34506;BME280;20748;42.632;23.198;2022-09-17T05:35:50;91306.44;;;18.14;94.80
34506;BME280;20748;42.632;23.198;2022-09-17T05:38:23;91303.13;;;18.20;95.51
34506;BME280;20748;42.632;23.198;2022-09-17T05:40:55;91301.25;;;18.21;96.33
34506;BME280;20748;42.632;23.198;2022-09-17T05:43:28;91306.97;;;18.27;96.07
34506;BME280;20748;42.632;23.198;2022-09-17T05:46:01;91302.88;;;18.33;96.09
34506;BME280;20748;42.632;23.198;2022-09-17T05:48:33;91302.91;;;18.36;95.45
34506;BME280;20748;42.632;23.198;2022-09-17T05:51:06;91303.66;;;18.37;95.14
34506;BME280;20748;42.632;23.198;2022-09-17T05:53:39;91306.31;;;18.37;94.15
34506;BME280;20748;42.632;23.198;2022-09-17T05:56:11;91307.47;;;18.40;94.67
34506;BME280;20748;42.632;23.198;2022-09-17T05:58:43;91297.66;;;18.40;95.73
34506;BME280;20748;42.632;23.198;2022-09-17T06:01:16;91279.63;;;18.49;95.76
34506;BME280;20748;42.632;23.198;2022-09-17T06:03:48;91290.53;;;18.44;96.40
34506;BME280;20748;42.632;23.198;2022-09-17T06:06:20;91287.91;;;18.48;96.97
34506;BME280;20748;42.632;23.198;2022-09-17T06:08:53;91290.97;;;18.50;96.86
34506;BME280;20748;42.632;23.198;2022-09-17T06:11:26;91289.06;;;18.50;97.15
34506;BME280;20748;42.632;23.198;2022-09-17T06:13:59;91301.88;;;18.48;97.41
34506;BME280;20748;42.632;23.198;2022-09-17T06:16:32;91308.34;;;18.55;96.40
34506;BME280;20748;42.632;23.198;2022-09-17T06:19:04;91310.63;;;18.56;97.39
34506;BME280;20748;42.632;23.198;2022-09-17T06:21:36;91321.22;;;18.60;96.23
34506;BME280;20748;42.632;23.198;2022-09-17T06:24:10;91328.81;;;18.65;96.42
34506;BME280;20748;42.632;23.198;2022-09-17T06:26:42;91329.59;;;18.69;96.22
34506;BME280;20748;42.632;23.198;2022-09-17T06:29:14;91343.56;;;18.70;96.05
34506;BME280;20748;42.632;23.198;2022-09-17T06:31:47;91343.94;;;18.72;95.21
34506;BME280;20748;42.632;23.198;2022-09-17T06:34:19;91342.81;;;18.73;95.82
34506;BME280;20748;42.632;23.198;2022-09-17T06:36:52;91343.59;;;18.73;95.24
34506;BME280;20748;42.632;23.198;2022-09-17T06:39:25;91347.00;;;18.74;95.77
34506;BME280;20748;42.632;23.198;2022-09-17T06:41:57;91313.44;;;18.78;94.52
34506;BME280;20748;42.632;23.198;2022-09-17T06:44:32;91304.66;;;18.67;93.83
34506;BME280;20748;42.632;23.198;2022-09-17T06:47:05;91316.72;;;18.64;93.91
34506;BME280;20748;42.632;23.198;2022-09-17T06:49:38;91309.84;;;18.52;94.08
34506;BME280;20748;42.632;23.198;2022-09-17T06:52:10;91304.50;;;18.45;92.87
34506;BME280;20748;42.632;23.198;2022-09-17T06:54:43;91297.31;;;18.45;93.56
34506;BME280;20748;42.632;23.198;2022-09-17T06:57:16;91298.31;;;18.30;89.53
34506;BME280;20748;42.632;23.198;2022-09-17T06:59:48;91275.75;;;18.36;91.32
34506;BME280;20748;42.632;23.198;2022-09-17T07:02:21;91274.59;;;18.33;92.41
34506;BME280;20748;42.632;23.198;2022-09-17T07:04:53;91251.50;;;18.27;90.79
34506;BME280;20748;42.632;23.198;2022-09-17T07:07:27;91245.41;;;18.19;92.31
34506;BME280;20748;42.632;23.198;2022-09-17T07:10:00;91239.50;;;18.33;92.15
34506;BME280;20748;42.632;23.198;2022-09-17T07:12:32;91231.69;;;18.44;91.63
34506;BME280;20748;42.632;23.198;2022-09-17T07:15:06;91222.69;;;18.56;90.54
34506;BME280;20748;42.632;23.198;2022-09-17T07:17:38;91223.94;;;18.73;90.94
34506;BME280;20748;42.632;23.198;2022-09-17T07:20:11;91213.78;;;18.78;89.68
34506;BME280;20748;42.632;23.198;2022-09-17T07:22:44;91225.59;;;18.96;90.82
34506;BME280;20748;42.632;23.198;2022-09-17T07:25:17;91235.88;;;19.08;88.38
34506;BME280;20748;42.632;23.198;2022-09-17T07:27:49;91238.59;;;19.23;86.12
34506;BME280;20748;42.632;23.198;2022-09-17T07:30:21;91231.06;;;19.28;81.01
34506;BME280;20748;42.632;23.198;2022-09-17T07:32:54;91238.66;;;19.34;79.42
34506;BME280;20748;42.632;23.198;2022-09-17T07:35:26;91217.94;;;19.50;78.65
34506;BME280;20748;42.632;23.198;2022-09-17T07:37:59;91225.53;;;19.66;78.71
34506;BME280;20748;42.632;23.198;2022-09-17T07:40:32;91213.16;;;19.89;79.90
34506;BME280;20748;42.632;23.198;2022-09-17T07:43:04;91211.31;;;20.07;77.26
34506;BME280;20748;42.632;23.198;2022-09-17T07:45:37;91219.25;;;20.04;74.43
34506;BME280;20748;42.632;23.198;2022-09-17T07:48:10;91205.28;;;20.21;75.77
34506;BME280;20748;42.632;23.198;2022-09-17T07:50:42;91215.09;;;20.50;74.91
34506;BME280;20748;42.632;23.198;2022-09-17T07:53:14;91201.47;;;20.81;76.21
34506;BME280;20748;42.632;23.198;2022-09-17T07:55:51;91197.25;;;21.01;72.94
34506;BME280;20748;42.632;23.198;2022-09-17T07:58:28;91196.09;;;21.17;70.43
34506;BME280;20748;42.632;23.198;2022-09-17T08:01:02;91191.84;;;21.34;70.01
34506;BME280;20748;42.632;23.198;2022-09-17T08:03:35;91191.34;;;21.68;69.82
34506;BME280;20748;42.632;23.198;2022-09-17T08:06:09;91194.59;;;21.98;68.59
34506;BME280;20748;42.632;23.198;2022-09-17T08:08:41;91174.03;;;22.09;65.35
34506;BME280;20748;42.632;23.198;2022-09-17T08:11:16;91174.25;;;22.37;65.68
34506;BME280;20748;42.632;23.198;2022-09-17T08:14:10;91173.69;;;22.60;64.98
34506;BME280;20748;42.632;23.198;2022-09-17T08:16:43;91179.19;;;22.80;64.93
34506;BME280;20748;42.632;23.198;2022-09-17T08:19:17;91177.97;;;22.89;62.38
34506;BME280;20748;42.632;23.198;2022-09-17T08:21:49;91182.31;;;23.10;63.72
34506;BME280;20748;42.632;23.198;2022-09-17T08:24:22;91174.13;;;23.32;63.91
34506;BME280;20748;42.632;23.198;2022-09-17T08:26:55;91171.44;;;22.97;66.72
34506;BME280;20748;42.632;23.198;2022-09-17T08:29:28;91169.38;;;22.74;69.19
34506;BME280;20748;42.632;23.198;2022-09-17T08:32:06;91170.31;;;22.95;69.45
34506;BME280;20748;42.632;23.198;2022-09-17T08:34:38;91176.25;;;23.10;67.86
34506;BME280;20748;42.632;23.198;2022-09-17T08:37:10;91176.25;;;23.10;69.13
34506;BME280;20748;42.632;23.198;2022-09-17T08:39:43;91173.34;;;22.97;69.33
34506;BME280;20748;42.632;23.198;2022-09-17T08:42:21;91178.59;;;22.62;68.26
34506;BME280;20748;42.632;23.198;2022-09-17T08:44:57;91177.78;;;22.69;69.43
34506;BME280;20748;42.632;23.198;2022-09-17T08:47:34;91175.44;;;22.74;70.39
34506;BME280;20748;42.632;23.198;2022-09-17T08:50:13;91187.94;;;22.77;70.23
34506;BME280;20748;42.632;23.198;2022-09-17T08:55:59;91198.50;;;22.39;72.87
34506;BME280;20748;42.632;23.198;2022-09-17T08:58:50;91192.78;;;22.44;71.65
34506;BME280;20748;42.632;23.198;2022-09-17T09:01:33;91190.47;;;22.46;72.34
34506;BME280;20748;42.632;23.198;2022-09-17T09:04:28;91194.72;;;22.36;72.75
34506;BME280;20748;42.632;23.198;2022-09-17T09:07:07;91192.03;;;22.40;72.29
34506;BME280;20748;42.632;23.198;2022-09-17T09:09:46;91194.34;;;22.38;72.46
34506;BME280;20748;42.632;23.198;2022-09-17T09:12:24;91197.81;;;22.27;73.56
34506;BME280;20748;42.632;23.198;2022-09-17T09:15:01;91197.81;;;22.27;74.78
34506;BME280;20748;42.632;23.198;2022-09-17T09:17:40;91195.59;;;22.22;76.34
34506;BME280;20748;42.632;23.198;2022-09-17T09:20:16;91216.13;;;22.15;76.49
34506;BME280;20748;42.632;23.198;2022-09-17T09:22:51;91224.53;;;22.06;77.94
34506;BME280;20748;42.632;23.198;2022-09-17T09:25:25;91233.69;;;21.97;78.92
34506;BME280;20748;42.632;23.198;2022-09-17T09:28:13;91239.78;;;21.91;80.89
34506;BME280;20748;42.632;23.198;2022-09-17T09:31:01;91249.34;;;21.73;80.42
34506;BME280;20748;42.632;23.198;2022-09-17T09:33:36;91254.38;;;21.46;81.63
34506;BME280;20748;42.632;23.198;2022-09-17T09:36:13;91270.34;;;21.24;84.78
34506;BME280;20748;42.632;23.198;2022-09-17T09:38:50;91284.75;;;21.05;86.10
34506;BME280;20748;42.632;23.198;2022-09-17T09:41:28;91291.16;;;20.46;90.55
34506;BME280;20748;42.632;23.198;2022-09-17T09:44:04;91299.81;;;20.14;91.67
34506;BME280;20748;42.632;23.198;2022-09-17T09:46:51;91307.38;;;20.11;92.63
34506;BME280;20748;42.632;23.198;2022-09-17T09:49:36;91314.75;;;19.66;95.04
34506;BME280;20748;42.632;23.198;2022-09-17T09:52:22;91317.66;;;19.42;96.69
34506;BME280;20748;42.632;23.198;2022-09-17T09:55:05;91287.03;;;19.34;99.61
34506;BME280;20748;42.632;23.198;2022-09-17T09:57:45;91266.09;;;19.07;100.00
34506;BME280;20748;42.632;23.198;2022-09-17T10:00:23;91254.38;;;19.08;100.00
34506;BME280;20748;42.632;23.198;2022-09-17T10:03:01;91215.84;;;19.07;100.00
34506;BME280;20748;42.632;23.198;2022-09-17T10:05:35;91184.94;;;19.15;100.00
34506;BME280;20748;42.632;23.198;2022-09-17T10:08:12;91173.59;;;19.14;100.00
34506;BME280;20748;42.632;23.198;2022-09-17T10:10:58;91160.91;;;18.71;91.96
34506;BME280;20748;42.632;23.198;2022-09-17T10:13:33;91149.41;;;18.42;88.00
34506;BME280;20748;42.632;23.198;2022-09-17T10:16:16;91123.63;;;18.24;90.03
34506;BME280;20748;42.632;23.198;2022-09-17T10:19:11;91132.28;;;18.17;92.24
34506;BME280;20748;42.632;23.198;2022-09-17T10:21:44;91137.09;;;18.08;88.51
34506;BME280;20748;42.632;23.198;2022-09-17T10:24:23;91134.41;;;18.04;88.55
34506;BME280;20748;42.632;23.198;2022-09-17T10:26:59;91138.94;;;18.04;88.19
34506;BME280;20748;42.632;23.198;2022-09-17T10:29:33;91157.72;;;17.98;87.10
34506;BME280;20748;42.632;23.198;2022-09-17T10:32:05;91157.59;;;17.80;88.37
34506;BME280;20748;42.632;23.198;2022-09-17T10:34:40;91146.56;;;17.71;88.24
34506;BME280;20748;42.632;23.198;2022-09-17T10:37:30;91151.31;;;17.54;90.90
34506;BME280;20748;42.632;23.198;2022-09-17T10:40:14;91137.13;;;17.66;88.95
34506;BME280;20748;42.632;23.198;2022-09-17T10:43:25;91124.84;;;17.85;91.89
34506;BME280;20748;42.632;23.198;2022-09-17T10:45:59;91106.44;;;17.96;89.96
34506;BME280;20748;42.632;23.198;2022-09-17T10:48:35;91128.63;;;17.88;87.79
34506;BME280;20748;42.632;23.198;2022-09-17T10:51:10;91103.88;;;18.03;88.62
34506;BME280;20748;42.632;23.198;2022-09-17T10:54:33;91109.53;;;18.05;84.96
34506;BME280;20748;42.632;23.198;2022-09-17T10:57:16;91122.06;;;18.12;84.90
34506;BME280;20748;42.632;23.198;2022-09-17T10:59:59;91110.03;;;18.15;79.37
34506;BME280;20748;42.632;23.198;2022-09-17T11:06:04;91116.19;;;18.37;75.81
34506;BME280;20748;42.632;23.198;2022-09-17T11:08:57;91147.56;;;18.46;77.08
34506;BME280;20748;42.632;23.198;2022-09-17T11:11:41;91140.03;;;18.55;74.00
34506;BME280;20748;42.632;23.198;2022-09-17T11:14:36;91135.22;;;18.64;75.67
34506;BME280;20748;42.632;23.198;2022-09-17T11:17:17;91135.22;;;18.64;76.69
34506;BME280;20748;42.632;23.198;2022-09-17T11:19:58;91130.72;;;18.72;75.73
34506;BME280;20748;42.632;23.198;2022-09-17T11:22:41;91121.31;;;18.75;74.60
34506;BME280;20748;42.632;23.198;2022-09-17T11:25:30;91123.16;;;18.71;76.54
34506;BME280;20748;42.632;23.198;2022-09-17T11:31:16;91137.00;;;18.49;76.53
34506;BME280;20748;42.632;23.198;2022-09-17T11:34:11;91124.19;;;18.51;76.28
34506;BME280;20748;42.632;23.198;2022-09-17T11:36:54;91127.59;;;18.56;77.09
34506;BME280;20748;42.632;23.198;2022-09-17T11:39:31;91125.56;;;18.27;79.91
34506;BME280;20748;42.632;23.198;2022-09-17T11:42:08;91138.63;;;18.13;80.58
34506;BME280;20748;42.632;23.198;2022-09-17T11:44:44;91097.53;;;18.08;83.82
34506;BME280;20748;42.632;23.198;2022-09-17T11:47:21;91109.19;;;18.07;81.12
34506;BME280;20748;42.632;23.198;2022-09-17T11:50:00;91129.81;;;17.94;85.31
34506;BME280;20748;42.632;23.198;2022-09-17T11:52:36;91121.34;;;17.74;87.53
34506;BME280;20748;42.632;23.198;2022-09-17T11:55:18;91125.75;;;17.62;86.44
34506;BME280;20748;42.632;23.198;2022-09-17T11:57:58;91128.06;;;17.67;87.87
34506;BME280;20748;42.632;23.198;2022-09-17T12:00:33;91142.38;;;17.66;87.05
34506;BME280;20748;42.632;23.198;2022-09-17T12:03:14;91132.50;;;17.56;86.71
34506;BME280;20748;42.632;23.198;2022-09-17T12:05:52;91145.00;;;17.63;87.33
34506;BME280;20748;42.632;23.198;2022-09-17T12:08:32;91141.53;;;17.55;88.58
34506;BME280;20748;42.632;23.198;2022-09-17T12:11:12;91138.34;;;17.38;87.16
34506;BME280;20748;42.632;23.198;2022-09-17T12:13:48;91140.34;;;17.49;86.42
34506;BME280;20748;42.632;23.198;2022-09-17T12:16:25;91134.72;;;17.50;88.30
34506;BME280;20748;42.632;23.198;2022-09-17T12:19:02;91127.81;;;17.38;86.32
34506;BME280;20748;42.632;23.198;2022-09-17T12:21:39;91125.34;;;17.56;84.75
34506;BME280;20748;42.632;23.198;2022-09-17T12:24:22;91106.81;;;17.49;85.49
34506;BME280;20748;42.632;23.198;2022-09-17T12:27:08;91115.44;;;17.46;86.48
34506;BME280;20748;42.632;23.198;2022-09-17T12:30:09;91108.94;;;17.33;85.43
34506;BME280;20748;42.632;23.198;2022-09-17T12:32:53;91114.06;;;17.22;84.70
34506;BME280;20748;42.632;23.198;2022-09-17T12:35:49;91114.03;;;17.18;86.95
34506;BME280;20748;42.632;23.198;2022-09-17T12:38:51;91113.03;;;17.30;88.87
34506;BME280;20748;42.632;23.198;2022-09-17T12:41:43;91096.09;;;16.97;90.59
34506;BME280;20748;42.632;23.198;2022-09-17T12:44:42;91103.81;;;17.13;91.49
34506;BME280;20748;42.632;23.198;2022-09-17T12:47:36;91100.94;;;16.91;92.84
34506;BME280;20748;42.632;23.198;2022-09-17T12:50:18;91090.34;;;16.87;95.17
34506;BME280;20748;42.632;23.198;2022-09-17T12:53:05;91084.75;;;16.92;96.55
34506;BME280;20748;42.632;23.198;2022-09-17T12:56:00;91079.41;;;16.85;95.11
34506;BME280;20748;42.632;23.198;2022-09-17T12:58:51;91075.56;;;16.79;96.16
34506;BME280;20748;42.632;23.198;2022-09-17T13:01:32;91074.56;;;16.87;97.70
34506;BME280;20748;42.632;23.198;2022-09-17T13:04:21;91067.13;;;16.66;98.81
34506;BME280;20748;42.632;23.198;2022-09-17T13:07:33;91068.19;;;16.58;99.72
34506;BME280;20748;42.632;23.198;2022-09-17T13:10:29;91069.72;;;16.62;98.70
34506;BME280;20748;42.632;23.198;2022-09-17T13:13:08;91064.38;;;16.55;100.00
34506;BME280;20748;42.632;23.198;2022-09-17T13:15:54;91056.97;;;16.64;99.30
34506;BME280;20748;42.632;23.198;2022-09-17T13:18:33;91054.59;;;16.52;100.00
34506;BME280;20748;42.632;23.198;2022-09-17T13:21:18;91041.00;;;16.50;98.65
34506;BME280;20748;42.632;23.198;2022-09-17T13:23:55;91057.66;;;16.58;97.53
34506;BME280;20748;42.632;23.198;2022-09-17T13:26:35;91044.53;;;16.61;98.95
34506;BME280;20748;42.632;23.198;2022-09-17T13:29:10;91040.69;;;16.55;99.21
34506;BME280;20748;42.632;23.198;2022-09-17T13:31:47;91039.22;;;16.58;98.33
34506;BME280;20748;42.632;23.198;2022-09-17T13:34:29;91037.22;;;16.47;96.92
34506;BME280;20748;42.632;23.198;2022-09-17T13:37:02;91033.25;;;16.61;98.59
34506;BME280;20748;42.632;23.198;2022-09-17T13:39:38;91026.50;;;16.63;98.54
34506;BME280;20748;42.632;23.198;2022-09-17T13:42:17;91001.69;;;16.64;99.24
34506;BME280;20748;42.632;23.198;2022-09-17T13:44:59;90989.25;;;16.65;95.84
34506;BME280;20748;42.632;23.198;2022-09-17T13:47:37;90984.44;;;16.71;97.00
34506;BME280;20748;42.632;23.198;2022-09-17T13:50:24;90956.31;;;16.78;97.18
34506;BME280;20748;42.632;23.198;2022-09-17T13:52:59;90943.88;;;16.79;94.61
34506;BME280;20748;42.632;23.198;2022-09-17T13:55:39;90933.34;;;16.79;96.20